Time;durP1;ratioP1;P1;durP2;ratioP2;P2;SDS_P1;SDS_P2;PMS_P1;PMS_P2;Temp;Humidity;BMP_temperature;BMP_pressure;BME280_temperature;BME280_humidity;BME280_pressure;Samples;Min_cycle;Max_cycle;Signal;HPM_P1;HPM_P2
2023/09/02 00:00:34;;;;;;;2.08;1.10;;;15.40;99.90;;;15.28;100.00;97401.81;4994878;28;20034;-38
2023/09/02 00:03:00;;;;;;;2.25;1.10;;;15.40;99.90;;;15.25;100.00;97389.59;4994821;28;20626;-39
2023/09/02 00:05:26;;;;;;;2.10;1.17;;;15.50;99.90;;;15.31;100.00;97406.97;4994759;28;20033;-40
2023/09/02 00:07:52;;;;;;;2.72;1.10;;;15.50;99.90;;;15.28;100.00;97404.47;4986613;28;20401;-38
2023/09/02 00:10:18;;;;;;;1.80;1.20;;;15.50;99.90;;;15.22;100.00;97392.41;4997774;28;20033;-41
2023/09/02 00:12:44;;;;;;;2.30;1.10;;;15.50;99.90;;;15.28;100.00;97408.00;4990679;28;20081;-41
2023/09/02 00:15:10;;;;;;;2.55;1.35;;;15.50;99.90;;;15.26;100.00;97411.69;4995887;28;20053;-41
2023/09/02 00:17:36;;;;;;;1.98;0.90;;;15.50;99.90;;;15.23;100.00;97412.69;4995386;28;20025;-41
2023/09/02 00:20:07;;;;;;;2.15;1.27;;;15.50;99.90;;;15.24;100.00;97411.75;4988732;28;20531;-41
2023/09/02 00:22:33;;;;;;;1.05;0.88;;;15.40;99.90;;;15.25;100.00;97417.94;4992455;28;20037;-42
2023/09/02 00:25:02;;;;;;;1.73;1.10;;;15.50;99.90;;;15.23;100.00;97420.66;4988262;28;20983;-41
2023/09/02 00:27:28;;;;;;;1.85;1.30;;;15.40;99.90;;;15.23;100.00;97414.50;4985271;28;20034;-41
2023/09/02 00:29:53;;;;;;;2.00;1.42;;;15.40;99.90;;;15.22;100.00;97421.63;4979619;28;20038;-41
2023/09/02 00:32:19;;;;;;;5.65;1.20;;;15.40;99.90;;;15.08;100.00;97408.25;4992753;28;20030;-40
2023/09/02 00:34:46;;;;;;;1.70;1.30;;;15.40;99.90;;;15.14;100.00;97429.16;4988044;28;20044;-42
2023/09/02 00:37:12;;;;;;;1.83;1.13;;;15.30;99.90;;;15.08;100.00;97425.03;4993131;28;20026;-41
2023/09/02 00:39:38;;;;;;;2.22;1.20;;;15.30;99.90;;;15.02;100.00;97422.72;4989274;28;20045;-43
2023/09/02 00:42:06;;;;;;;3.20;1.70;;;15.30;99.90;;;15.01;100.00;97425.47;4990158;28;20049;-42
2023/09/02 00:44:36;;;;;;;2.42;1.67;;;15.20;99.90;;;14.96;100.00;97423.03;4997956;28;20116;-42
2023/09/02 00:47:04;;;;;;;2.35;1.73;;;15.20;99.90;;;14.91;100.00;97425.09;5001364;28;20284;-41
2023/09/02 00:49:32;;;;;;;3.08;1.52;;;15.10;99.90;;;14.91;100.00;97429.53;4987666;28;20363;-41
2023/09/02 00:51:57;;;;;;;4.20;1.88;;;15.10;99.90;;;14.82;100.00;97413.19;4987295;28;20034;-41
2023/09/02 00:54:23;;;;;;;2.58;1.70;;;15.10;99.90;;;14.79;100.00;97418.66;4997689;28;20445;-41
2023/09/02 00:56:49;;;;;;;2.70;1.90;;;15.10;99.90;;;14.79;100.00;97415.16;4990444;28;20049;-43
2023/09/02 00:59:15;;;;;;;3.55;1.92;;;15.00;99.90;;;14.80;100.00;97424.81;4987329;28;20044;-42
2023/09/02 01:01:44;;;;;;;2.58;1.90;;;15.00;99.90;;;14.74;100.00;97422.50;4986448;28;20068;-40
2023/09/02 01:04:09;;;;;;;4.15;1.90;;;15.00;99.90;;;14.71;100.00;97428.81;4996133;28;21490;-43
2023/09/02 01:06:36;;;;;;;3.75;1.77;;;14.90;99.90;;;14.65;100.00;97411.41;4987374;28;20634;-42
2023/09/02 01:09:03;;;;;;;3.50;1.77;;;14.90;99.90;;;14.68;100.00;97413.06;4981968;28;20034;-41
2023/09/02 01:11:35;;;;;;;2.63;1.90;;;14.90;99.90;;;14.65;100.00;97416.72;4982281;28;20029;-46
2023/09/02 01:14:02;;;;;;;2.33;1.90;;;14.80;99.90;;;14.64;100.00;97417.69;4995957;28;20057;-41
2023/09/02 01:16:28;;;;;;;2.47;1.80;;;14.90;99.90;;;14.63;100.00;97425.72;4994670;28;20280;-41
2023/09/02 01:18:54;;;;;;;2.20;1.80;;;14.80;99.90;;;14.60;100.00;97415.25;4990681;28;20038;-41
2023/09/02 01:21:50;;;;;;;3.17;1.90;;;14.80;99.90;;;14.61;100.00;97422.31;4989460;28;20038;-39
2023/09/02 01:24:42;;;;;;;5.05;1.80;;;14.80;99.90;;;14.59;100.00;97411.75;4995732;28;20445;-39
2023/09/02 01:27:23;;;;;;;2.47;1.88;;;14.80;99.90;;;14.59;100.00;97414.41;5009748;28;20037;-41
2023/09/02 01:30:00;;;;;;;2.83;1.58;;;14.80;99.90;;;14.57;100.00;97421.56;4989067;28;20041;-40
2023/09/02 01:32:33;;;;;;;1.88;1.42;;;14.80;99.90;;;14.55;100.00;97428.72;4994335;28;20032;-39
2023/09/02 01:35:04;;;;;;;2.35;1.48;;;14.80;99.90;;;14.51;100.00;97422.72;4989316;28;20417;-39
2023/09/02 01:37:33;;;;;;;2.97;1.60;;;14.70;99.90;;;14.49;100.00;97421.09;4987666;28;20557;-43
2023/09/02 01:40:00;;;;;;;3.22;1.77;;;14.70;99.90;;;14.47;100.00;97421.19;4992910;28;20049;-42
2023/09/02 01:42:26;;;;;;;5.03;2.10;;;14.70;99.90;;;14.45;100.00;97416.91;4989111;28;20041;-44
2023/09/02 01:44:52;;;;;;;4.30;1.90;;;14.70;99.90;;;14.43;100.00;97424.09;4989723;28;20209;-41
2023/09/02 01:47:18;;;;;;;3.40;2.03;;;14.70;99.90;;;14.35;100.00;97418.31;4990624;28;20411;-45
2023/09/02 01:49:47;;;;;;;4.00;2.47;;;14.70;99.90;;;14.39;100.00;97418.09;4995481;28;20510;-41
2023/09/02 01:52:15;;;;;;;4.50;2.53;;;14.60;99.90;;;14.38;100.00;97431.44;5002290;28;20040;-41
2023/09/02 01:54:42;;;;;;;4.03;2.63;;;14.60;99.90;;;14.34;100.00;97422.78;4988276;28;20171;-42
2023/09/02 01:57:07;;;;;;;3.25;2.58;;;14.60;99.90;;;14.35;100.00;97431.56;4984004;28;20041;-42
2023/09/02 01:59:33;;;;;;;5.05;2.70;;;14.60;99.90;;;14.31;100.00;97439.69;4993249;28;20030;-42
2023/09/02 02:02:01;;;;;;;3.65;2.40;;;14.60;99.90;;;14.28;100.00;97431.03;4984703;28;20030;-40
2023/09/02 02:04:38;;;;;;;2.75;2.15;;;14.60;99.90;;;14.28;100.00;97431.91;4990276;28;20037;-40
2023/09/02 02:07:13;;;;;;;4.05;2.20;;;14.60;99.90;;;14.21;100.00;97427.84;4969533;28;20222;-40
2023/09/02 02:09:43;;;;;;;3.90;2.20;;;14.50;99.90;;;14.26;100.00;97428.44;4988304;28;20026;-39
2023/09/02 02:12:09;;;;;;;3.90;2.60;;;14.50;99.90;;;14.24;100.00;97435.63;4989658;28;20083;-40
2023/09/02 02:14:35;;;;;;;4.20;2.15;;;14.50;99.90;;;14.21;100.00;97427.84;4985053;28;20108;-41
2023/09/02 02:17:02;;;;;;;5.07;2.97;;;14.50;99.90;;;14.15;100.00;97429.94;4985901;28;20030;-41
2023/09/02 02:19:28;;;;;;;3.10;2.30;;;14.50;99.90;;;14.23;100.00;97439.25;4992218;28;20571;-40
2023/09/02 02:21:54;;;;;;;4.43;2.30;;;14.40;99.90;;;14.24;100.00;97438.28;4989796;28;20124;-42
2023/09/02 02:24:19;;;;;;;3.13;2.15;;;14.50;99.90;;;14.24;100.00;97438.28;4986053;28;20052;-40
2023/09/02 02:26:45;;;;;;;2.60;1.77;;;14.50;99.90;;;14.23;100.00;97433.94;4991193;28;20056;-41
2023/09/02 02:29:11;;;;;;;4.95;2.00;;;14.50;99.90;;;14.24;100.00;97437.44;4988623;28;20303;-44
2023/09/02 02:31:36;;;;;;;2.00;1.55;;;14.50;99.90;;;14.23;100.00;97444.53;4990382;28;20513;-41
2023/09/02 02:34:03;;;;;;;2.78;1.60;;;14.50;99.90;;;14.23;100.00;97441.00;4994276;28;20042;-40
2023/09/02 02:36:29;;;;;;;2.88;1.60;;;14.40;99.90;;;14.24;100.00;97446.25;4988564;28;20030;-42
2023/09/02 02:38:54;;;;;;;2.95;1.65;;;14.50;99.90;;;14.02;100.00;97413.81;4992937;28;20358;-41
2023/09/02 02:41:20;;;;;;;1.90;1.40;;;14.50;99.90;;;14.24;100.00;97450.69;4989949;28;20030;-40
2023/09/02 02:43:46;;;;;;;1.77;1.33;;;14.40;99.90;;;14.22;100.00;97450.75;4990183;28;20552;-42
2023/09/02 02:46:11;;;;;;;2.42;1.85;;;14.40;99.90;;;14.21;100.00;97446.41;4981993;28;20045;-40
2023/09/02 02:48:37;;;;;;;2.95;1.50;;;14.50;99.90;;;14.21;100.00;97448.19;5001798;28;20496;-41
2023/09/02 02:51:03;;;;;;;1.95;1.25;;;14.50;99.90;;;14.15;100.00;97436.09;4991087;28;20038;-41
2023/09/02 02:53:29;;;;;;;2.70;1.60;;;14.40;99.90;;;14.10;100.00;97432.81;4992386;28;20025;-43
2023/09/02 02:55:54;;;;;;;1.75;1.40;;;14.40;99.90;;;14.11;100.00;97440.69;4996679;28;20026;-43
2023/09/02 02:58:21;;;;;;;3.40;1.58;;;14.40;99.90;;;14.08;100.00;97440.84;4991263;28;20025;-40
2023/09/02 03:00:49;;;;;;;4.45;1.67;;;14.30;99.90;;;14.06;100.00;97436.56;4991345;28;20041;-41
2023/09/02 03:03:15;;;;;;;3.30;1.80;;;14.30;99.90;;;14.04;100.00;97446.41;4984416;28;20717;-40
2023/09/02 03:05:42;;;;;;;2.70;1.80;;;14.20;99.90;;;13.97;100.00;97434.38;4989521;28;21524;-41
2023/09/02 03:08:09;;;;;;;2.53;1.70;;;14.30;99.90;;;14.02;100.00;97448.28;4987136;28;20038;-42
2023/09/02 03:10:36;;;;;;;2.85;1.83;;;14.20;99.90;;;13.98;100.00;97444.91;4990136;28;20053;-41
2023/09/02 03:13:03;;;;;;;7.10;2.30;;;14.20;99.90;;;13.97;100.00;97443.19;4978735;28;20046;-43
2023/09/02 03:15:28;;;;;;;6.03;2.15;;;14.20;99.90;;;13.98;100.00;97447.56;4990725;28;20037;-41
2023/09/02 03:17:55;;;;;;;3.25;2.30;;;14.20;99.90;;;13.99;100.00;97453.72;4988380;28;20056;-40
2023/09/02 03:20:21;;;;;;;5.97;2.10;;;14.20;99.90;;;13.98;100.00;97449.34;4980720;28;20037;-41
2023/09/02 03:22:47;;;;;;;2.70;1.80;;;14.20;99.90;;;13.97;100.00;97456.44;4983891;28;20034;-42
2023/09/02 03:25:12;;;;;;;4.68;1.80;;;14.20;99.90;;;13.92;100.00;97456.66;4978816;28;20033;-42
2023/09/02 03:27:39;;;;;;;2.28;1.83;;;14.20;99.90;;;13.85;100.00;97449.94;4977369;28;20133;-40
2023/09/02 03:30:06;;;;;;;3.45;2.20;;;14.10;99.90;;;13.93;100.00;97469.00;4980171;28;20121;-40
2023/09/02 03:32:32;;;;;;;6.75;2.30;;;14.20;99.90;;;13.92;100.00;97464.63;4986020;28;20040;-41
2023/09/02 03:34:58;;;;;;;3.28;1.92;;;14.20;99.90;;;13.89;100.00;97459.50;4988532;28;20026;-40
2023/09/02 03:37:24;;;;;;;3.67;1.90;;;14.10;99.90;;;13.84;100.00;97455.34;4984682;28;20041;-40
2023/09/02 03:39:51;;;;;;;2.25;1.90;;;14.10;99.90;;;13.87;100.00;97456.06;4983344;28;20076;-41
2023/09/02 03:42:16;;;;;;;3.47;2.10;;;14.10;99.90;;;13.83;100.00;97451.81;4984234;28;20034;-43
2023/09/02 03:44:42;;;;;;;2.78;1.90;;;14.10;99.90;;;13.84;100.00;97453.56;4994943;28;20548;-40
2023/09/02 03:47:08;;;;;;;4.07;2.20;;;14.10;99.90;;;13.82;100.00;97459.84;4986738;28;20037;-40
2023/09/02 03:49:34;;;;;;;3.67;2.20;;;14.10;99.90;;;13.80;100.00;97453.75;4984616;28;20461;-40
2023/09/02 03:51:59;;;;;;;4.22;1.98;;;14.10;99.90;;;13.78;100.00;97451.19;4997824;28;20039;-44
2023/09/02 03:54:25;;;;;;;3.38;2.38;;;14.00;99.90;;;13.69;100.00;97433.09;4995693;28;20022;-39
2023/09/02 03:56:51;;;;;;;5.30;2.30;;;14.00;99.90;;;13.74;100.00;97457.56;4998555;28;20026;-40
2023/09/02 03:59:16;;;;;;;2.30;1.75;;;14.00;99.90;;;13.71;100.00;97455.94;4998369;28;20043;-41
2023/09/02 04:01:42;;;;;;;3.95;2.00;;;14.00;99.90;;;13.69;100.00;97462.25;4998297;28;20034;-40
2023/09/02 04:04:08;;;;;;;2.97;1.90;;;14.00;99.90;;;13.66;100.00;97460.59;4994750;28;20136;-40
2023/09/02 04:06:34;;;;;;;5.03;1.85;;;13.90;99.90;;;13.64;100.00;97461.59;4993647;28;20034;-40
2023/09/02 04:08:59;;;;;;;4.53;1.90;;;13.90;99.90;;;13.61;100.00;97462.63;4995103;28;20033;-40
2023/09/02 04:11:25;;;;;;;3.13;1.85;;;13.80;99.90;;;13.53;100.00;97454.16;4998719;28;20442;-42
2023/09/02 04:13:51;;;;;;;3.20;2.13;;;13.80;99.90;;;13.55;100.00;97468.22;5001785;28;20049;-41
2023/09/02 04:16:16;;;;;;;3.92;2.30;;;13.80;99.90;;;13.54;100.00;97472.66;5000968;28;20029;-40
2023/09/02 04:18:42;;;;;;;2.47;1.60;;;13.80;99.90;;;13.50;100.00;97472.88;4996725;28;20486;-39
2023/09/02 04:21:09;;;;;;;3.85;1.77;;;13.70;99.90;;;13.48;100.00;97467.66;4996962;28;20026;-41
2023/09/02 04:23:35;;;;;;;2.63;1.92;;;13.70;99.90;;;13.46;100.00;97474.81;4994798;28;20221;-39
2023/09/02 04:26:02;;;;;;;5.78;2.10;;;13.70;99.90;;;13.41;100.00;97465.38;4989353;28;20026;-41
2023/09/02 04:28:28;;;;;;;2.30;1.55;;;13.70;99.90;;;13.42;100.00;97473.22;4994249;28;20045;-40
2023/09/02 04:30:56;;;;;;;4.18;1.80;;;13.70;99.90;;;13.44;100.00;97476.69;4986128;28;20382;-42
2023/09/02 04:33:23;;;;;;;4.00;2.03;;;13.70;99.90;;;13.43;100.00;97482.91;4989470;28;20053;-40
2023/09/02 04:35:49;;;;;;;3.90;2.00;;;13.70;99.90;;;13.43;100.00;97477.59;4995086;28;20026;-43
2023/09/02 04:38:15;;;;;;;2.42;1.73;;;13.70;99.90;;;13.45;100.00;97478.38;4994206;28;20067;-44
2023/09/02 04:40:43;;;;;;;3.75;1.85;;;13.70;99.90;;;13.46;100.00;97480.13;4995764;28;20479;-39
2023/09/02 04:43:11;;;;;;;2.38;1.65;;;13.70;99.90;;;13.48;100.00;97485.34;4990798;28;20125;-40
2023/09/02 04:45:39;;;;;;;2.53;2.13;;;13.70;99.90;;;13.49;100.00;97487.91;4990413;28;20034;-43
2023/09/02 04:48:07;;;;;;;1.90;1.70;;;13.70;99.90;;;13.50;100.00;97492.28;4988732;28;20431;-42
2023/09/02 04:50:34;;;;;;;4.50;1.98;;;13.70;99.90;;;13.48;100.00;97485.34;4988195;28;20041;-42
2023/09/02 04:53:01;;;;;;;3.20;1.90;;;13.80;99.90;;;13.48;100.00;97478.25;4989066;28;20600;-40
2023/09/02 04:55:28;;;;;;;2.55;1.80;;;13.70;99.90;;;13.51;100.00;97487.81;4992428;28;20532;-41
2023/09/02 04:57:56;;;;;;;3.03;1.88;;;13.80;99.90;;;13.51;100.00;97488.72;4996668;28;20026;-42
2023/09/02 05:00:27;;;;;;;2.85;1.88;;;13.80;99.90;;;13.46;100.00;97480.13;4993008;28;20087;-40
2023/09/02 05:02:52;;;;;;;3.60;2.00;;;13.80;99.90;;;13.54;100.00;97496.50;4996277;28;20053;-40
2023/09/02 05:05:21;;;;;;;4.85;2.20;;;13.80;99.90;;;13.56;100.00;97502.56;4991431;28;20505;-40
2023/09/02 05:07:46;;;;;;;5.13;2.10;;;13.80;99.90;;;13.63;100.00;97507.59;4987756;28;20037;-39
2023/09/02 05:10:14;;;;;;;2.67;1.70;;;13.80;99.90;;;13.66;100.00;97508.31;4987909;28;20433;-40
2023/09/02 05:12:40;;;;;;;2.92;1.83;;;13.90;99.90;;;13.69;100.00;97509.94;4993484;28;20390;-40
2023/09/02 05:15:06;;;;;;;3.47;2.17;;;13.90;99.90;;;13.73;100.00;97508.88;4979011;28;21523;-39
2023/09/02 05:17:33;;;;;;;4.40;2.17;;;13.90;99.90;;;13.79;100.00;97511.22;4990510;28;20022;-40
2023/09/02 05:20:00;;;;;;;2.58;1.83;;;14.00;99.90;;;13.83;100.00;97507.50;4982643;28;20635;-41
2023/09/02 05:22:26;;;;;;;6.35;2.28;;;14.10;99.90;;;13.87;100.00;97500.25;4986338;28;20083;-40
2023/09/02 05:24:52;;;;;;;2.95;2.00;;;14.10;99.90;;;13.93;100.00;97503.47;4990187;28;20034;-40
2023/09/02 05:27:19;;;;;;;3.05;2.20;;;14.20;99.90;;;13.99;100.00;97510.25;4992575;28;20518;-40
2023/09/02 05:29:45;;;;;;;4.30;2.08;;;14.20;99.90;;;14.04;100.00;97510.91;4986189;28;20030;-41
2023/09/02 05:32:12;;;;;;;1.95;1.75;;;14.30;99.90;;;14.10;100.00;97510.59;4991333;28;20053;-41
2023/09/02 05:34:38;;;;;;;2.55;2.10;;;14.40;99.90;;;14.16;100.00;97508.56;4988086;28;20432;-41
2023/09/02 05:37:04;;;;;;;3.42;2.50;;;14.40;99.90;;;14.20;100.00;97511.00;4990638;28;20375;-40
2023/09/02 05:39:29;;;;;;;4.38;2.40;;;14.50;99.90;;;14.25;100.00;97516.94;5000670;28;20033;-40
2023/09/02 05:41:55;;;;;;;3.72;2.70;;;14.50;99.90;;;14.29;100.00;97518.50;4997395;28;20123;-41
2023/09/02 05:44:21;;;;;;;3.75;2.35;;;14.60;99.90;;;14.33;100.00;97514.75;4990569;28;20038;-41
2023/09/02 05:46:46;;;;;;;5.63;2.40;;;14.60;99.90;;;14.37;100.00;97511.94;4986161;28;20115;-41
2023/09/02 05:49:12;;;;;;;3.53;2.35;;;14.70;99.90;;;14.44;100.00;97516.00;4987885;28;20045;-42
2023/09/02 05:51:38;;;;;;;3.13;2.05;;;14.70;99.90;;;14.41;100.00;97511.72;4994900;28;20033;-41
2023/09/02 05:54:06;;;;;;;2.90;2.05;;;14.70;99.90;;;14.55;100.00;97521.59;4997072;28;20034;-40
2023/09/02 05:56:33;;;;;;;2.85;2.22;;;14.80;99.90;;;14.46;100.00;97500.84;4990704;28;20057;-43
2023/09/02 05:59:00;;;;;;;5.00;2.10;;;14.90;99.90;;;14.68;100.00;97527.22;4986491;28;20529;-41
2023/09/02 06:01:25;;;;;;;3.42;2.47;;;14.90;99.90;;;14.76;100.00;97526.81;4994338;28;20047;-40
2023/09/02 06:03:51;;;;;;;3.17;2.10;;;15.00;99.90;;;14.83;100.00;97520.25;5000404;28;20029;-41
2023/09/02 06:06:17;;;;;;;3.28;2.20;;;15.10;99.90;;;14.93;100.00;97523.25;4999038;28;20033;-41
2023/09/02 06:08:43;;;;;;;5.53;2.38;;;15.20;99.90;;;15.02;100.00;97528.06;4997664;28;20188;-41
2023/09/02 06:11:08;;;;;;;3.75;2.30;;;15.30;99.90;;;15.11;100.00;97527.63;4985186;28;20030;-41
2023/09/02 06:13:34;;;;;;;5.55;2.45;;;15.40;99.90;;;15.21;100.00;97530.63;4991551;28;21859;-41
2023/09/02 06:16:03;;;;;;;2.30;2.08;;;15.50;99.90;;;15.30;100.00;97526.63;4994947;28;20153;-43
2023/09/02 06:18:29;;;;;;;2.42;2.13;;;15.60;99.90;;;15.37;100.00;97520.03;4989801;28;20307;-43
2023/09/02 06:20:55;;;;;;;3.40;2.50;;;15.70;99.90;;;15.42;100.00;97520.66;4985752;28;20029;-41
2023/09/02 06:23:25;;;;;;;5.43;2.25;;;15.70;99.90;;;15.50;100.00;97525.53;5001915;28;20026;-41
2023/09/02 06:25:58;;;;;;;3.83;2.40;;;15.80;99.90;;;15.61;100.00;97532.00;4999853;28;20497;-41
2023/09/02 06:28:25;;;;;;;4.57;2.33;;;15.90;99.90;;;15.69;100.00;97520.06;5005294;28;20026;-41
2023/09/02 06:30:51;;;;;;;4.75;2.42;;;15.90;99.90;;;15.77;100.00;97525.84;4997066;28;20069;-42
2023/09/02 06:33:24;;;;;;;6.60;2.42;;;16.00;99.90;;;15.87;100.00;97524.38;4999911;28;20055;-41
2023/09/02 06:35:49;;;;;;;4.10;2.10;;;16.10;99.90;;;15.91;100.00;97517.94;5000412;28;20509;-41
2023/09/02 06:38:17;;;;;;;3.15;1.88;;;16.20;99.90;;;16.07;100.00;97525.91;4996035;28;20057;-43
2023/09/02 06:40:42;;;;;;;4.95;2.55;;;16.30;99.90;;;16.16;100.00;97530.69;5000835;28;20112;-42
2023/09/02 06:43:08;;;;;;;3.40;2.13;;;16.40;99.90;;;16.23;100.00;97529.41;5002082;28;20098;-40
2023/09/02 06:45:34;;;;;;;4.50;2.30;;;16.50;99.90;;;16.34;100.00;97539.41;4996533;28;20505;-42
2023/09/02 06:47:59;;;;;;;2.75;1.98;;;16.60;99.90;;;16.40;100.00;97532.88;4998049;28;20030;-42
2023/09/02 06:50:28;;;;;;;3.22;1.98;;;16.70;99.90;;;16.48;100.00;97538.63;5000777;28;20634;-42
2023/09/02 06:52:53;;;;;;;5.70;2.08;;;16.70;99.90;;;16.53;100.00;97541.88;4997660;28;20025;-43
2023/09/02 06:55:19;;;;;;;2.83;2.17;;;16.70;99.90;;;16.60;100.00;97545.88;4999602;28;20033;-41
2023/09/02 06:57:45;;;;;;;2.65;1.80;;;16.90;99.90;;;16.67;100.00;97542.84;4995741;28;20057;-40
2023/09/02 07:00:12;;;;;;;4.90;2.10;;;16.90;99.90;;;16.73;100.00;97548.69;4998509;28;20053;-40
2023/09/02 07:02:39;;;;;;;2.92;1.88;;;17.00;99.90;;;16.77;100.00;97544.88;5001994;28;20494;-42
2023/09/02 07:05:04;;;;;;;3.88;1.80;;;17.00;99.90;;;16.85;100.00;97551.59;5001864;28;20125;-44
2023/09/02 07:07:30;;;;;;;2.90;2.03;;;17.10;99.90;;;16.89;100.00;97551.31;4990241;28;20034;-41
2023/09/02 07:09:57;;;;;;;2.95;2.08;;;17.10;99.90;;;16.93;100.00;97550.19;4999336;28;20070;-41
2023/09/02 07:12:24;;;;;;;2.97;2.08;;;17.20;99.90;;;16.96;100.00;97550.00;4995473;28;20278;-43
2023/09/02 07:14:50;;;;;;;4.28;1.90;;;17.20;99.90;;;17.05;100.00;97555.69;4994313;28;20038;-41
2023/09/02 07:17:16;;;;;;;4.10;2.13;;;17.30;99.90;;;17.14;100.00;97548.03;4989797;28;20470;-42
2023/09/02 07:19:41;;;;;;;4.00;1.98;;;17.40;99.90;;;17.04;100.00;97524.69;4995288;28;20414;-43
2023/09/02 07:22:07;;;;;;;3.97;2.30;;;17.50;99.90;;;17.37;100.00;97559.06;5000467;28;20116;-43
2023/09/02 07:24:33;;;;;;;3.55;2.58;;;17.60;99.90;;;17.51;100.00;97555.53;4998977;28;20041;-42
2023/09/02 07:26:59;;;;;;;3.58;1.98;;;17.70;99.90;;;17.68;100.00;97565.16;4998426;28;20482;-42
2023/09/02 07:29:24;;;;;;;1.75;1.40;;;17.90;99.90;;;17.90;100.00;97559.34;4997720;28;20067;-41
2023/09/02 07:31:50;;;;;;;3.20;2.25;;;18.10;99.90;;;18.14;100.00;97562.22;4990931;28;20026;-41
2023/09/02 07:34:16;;;;;;;5.70;1.70;;;18.40;99.90;;;18.42;100.00;97563.09;4998768;28;20030;-40
2023/09/02 07:36:42;;;;;;;4.85;1.88;;;18.60;99.90;;;18.63;100.00;97544.81;4993935;28;20034;-43
2023/09/02 07:39:08;;;;;;;3.03;1.83;;;18.80;99.90;;;18.95;100.00;97560.47;4996813;28;20104;-42
2023/09/02 07:41:34;;;;;;;3.50;1.85;;;19.10;99.90;;;19.24;100.00;97566.50;4995082;28;20048;-43
2023/09/02 07:43:59;;;;;;;2.10;1.70;;;19.30;99.90;;;19.49;100.00;97564.75;4998821;28;20037;-42
2023/09/02 07:46:25;;;;;;;2.47;1.70;;;19.60;99.90;;;19.78;100.00;97570.78;4993477;28;20433;-41
2023/09/02 07:48:52;;;;;;;3.30;1.60;;;19.80;99.90;;;20.02;100.00;97571.66;4996498;28;20029;-41
2023/09/02 07:51:18;;;;;;;3.78;2.05;;;20.10;99.90;;;20.29;100.00;97572.44;4998565;28;20037;-43
2023/09/02 07:53:45;;;;;;;2.92;1.60;;;20.30;99.90;;;20.50;100.00;97586.06;4998993;28;20606;-42
2023/09/02 07:56:11;;;;;;;2.53;1.80;;;20.50;99.90;;;20.64;100.00;97580.56;4996421;28;20116;-43
2023/09/02 07:58:36;;;;;;;2.15;1.55;;;20.70;99.90;;;20.78;100.00;97575.03;4998835;28;20075;-42
2023/09/02 08:01:02;;;;;;;2.05;1.52;;;20.80;99.90;;;20.91;100.00;97576.78;4993148;28;20057;-41
2023/09/02 08:03:28;;;;;;;3.13;1.73;;;20.90;99.90;;;20.93;100.00;97577.50;4997172;28;20401;-41
2023/09/02 08:05:54;;;;;;;2.58;1.48;;;21.10;99.90;;;21.09;100.00;97593.28;4990021;28;20392;-44
2023/09/02 08:08:21;;;;;;;4.63;1.60;;;21.20;99.90;;;21.14;100.00;97573.19;4998190;28;20663;-42
2023/09/02 08:10:46;;;;;;;4.32;2.10;;;21.20;99.90;;;21.13;100.00;97568.78;4998578;28;20034;-41
2023/09/02 08:13:12;;;;;;;3.85;1.60;;;21.30;99.90;;;21.32;100.00;97587.00;4992957;28;20030;-42
2023/09/02 08:15:38;;;;;;;2.70;1.60;;;21.40;99.90;;;21.49;100.00;97588.38;4995740;28;20037;-41
2023/09/02 08:18:05;;;;;;;2.45;1.85;;;21.50;99.90;;;21.57;100.00;97586.91;4986970;28;20033;-43
2023/09/02 08:20:31;;;;;;;4.30;1.83;;;21.60;99.90;;;21.61;100.00;97593.78;4983906;28;20045;-41
2023/09/02 08:22:57;;;;;;;2.67;1.90;;;21.70;99.90;;;21.68;100.00;97586.94;4993403;28;20038;-42
2023/09/02 08:25:23;;;;;;;5.68;2.10;;;21.70;99.90;;;21.77;100.00;97594.25;4995232;28;20087;-41
2023/09/02 08:27:49;;;;;;;2.53;1.60;;;21.80;99.90;;;21.85;100.00;97594.47;4984940;28;20038;-40
2023/09/02 08:30:15;;;;;;;2.97;1.48;;;21.80;99.90;;;21.91;100.00;97594.00;4985855;28;20129;-43
2023/09/02 08:32:42;;;;;;;3.28;1.58;;;21.80;99.90;;;21.97;100.00;97597.19;4992260;28;20018;-41
2023/09/02 08:35:08;;;;;;;3.33;1.90;;;21.90;99.90;;;21.95;100.00;97599.13;4994271;28;20037;-41
2023/09/02 08:37:37;;;;;;;4.60;1.77;;;21.90;99.90;;;21.91;100.00;97599.38;4995779;28;20488;-42
2023/09/02 08:40:03;;;;;;;4.85;1.80;;;21.90;99.90;;;21.93;100.00;97602.78;4989672;28;20227;-45
2023/09/02 08:42:33;;;;;;;5.93;1.60;;;21.90;99.90;;;21.97;100.00;97592.66;4986059;28;20128;-42
2023/09/02 08:45:02;;;;;;;3.40;1.80;;;21.90;99.90;;;21.97;100.00;97586.44;4989317;28;20045;-44
2023/09/02 08:47:33;;;;;;;6.18;1.77;;;21.90;99.90;;;22.10;100.00;97595.22;4992118;28;20505;-41
2023/09/02 08:49:59;;;;;;;1.70;1.40;;;22.00;99.90;;;22.12;100.00;97601.31;4995360;28;20076;-41
2023/09/02 08:52:25;;;;;;;6.07;1.77;;;22.10;99.90;;;22.11;100.00;97611.19;4996486;28;20117;-41
2023/09/02 08:54:53;;;;;;;4.30;2.15;;;22.10;99.90;;;22.14;100.00;97612.78;4999386;28;20455;-42
2023/09/02 08:57:20;;;;;;;2.78;1.60;;;22.10;99.90;;;22.25;100.00;97614.59;4996170;28;20041;-42
2023/09/02 08:59:46;;;;;;;3.47;1.70;;;22.20;99.90;;;22.29;100.00;97608.88;4983453;28;20069;-43
2023/09/02 09:02:12;;;;;;;3.70;1.63;;;22.30;99.90;;;22.41;100.00;97616.91;4991955;28;20042;-42
2023/09/02 09:04:38;;;;;;;2.28;1.75;;;22.30;99.90;;;22.47;100.00;97617.28;4997395;28;20084;-41
2023/09/02 09:07:05;;;;;;;3.72;1.80;;;22.40;99.90;;;22.43;100.00;97623.00;4996930;28;20041;-41
2023/09/02 09:09:42;;;;;;;2.70;1.75;;;22.40;99.90;;;22.38;100.00;97618.03;4997370;28;20025;-41
2023/09/02 09:12:12;;;;;;;3.30;1.70;;;22.40;99.90;;;22.53;100.00;97615.06;5006228;28;20057;-41
2023/09/02 09:14:43;;;;;;;2.75;1.70;;;22.50;99.90;;;22.60;100.00;97619.78;4998973;28;20164;-41
2023/09/02 09:17:10;;;;;;;2.67;1.83;;;22.50;99.90;;;22.69;100.00;97620.88;5009285;28;20073;-41
2023/09/02 09:19:36;;;;;;;2.22;1.33;;;22.60;99.90;;;22.66;100.00;97613.91;4993261;28;20073;-42
2023/09/02 09:22:02;;;;;;;2.78;1.77;;;22.60;99.90;;;22.75;100.00;97623.03;4993654;28;20442;-41
2023/09/02 09:24:29;;;;;;;3.13;1.70;;;22.70;99.90;;;22.83;100.00;97622.44;4999706;28;20045;-43
2023/09/02 09:26:58;;;;;;;2.47;1.42;;;22.80;99.90;;;22.91;100.00;97633.38;4996711;28;20029;-41
2023/09/02 09:29:24;;;;;;;4.05;1.33;;;22.90;99.90;;;22.94;99.23;97633.13;4995938;28;20502;-43
2023/09/02 09:32:10;;;;;;;2.05;1.60;;;22.90;99.90;;;23.01;100.00;97631.63;4994115;28;20057;-41
2023/09/02 09:34:41;;;;;;;2.38;1.70;;;22.90;99.90;;;23.10;100.00;97632.72;4996792;28;20044;-41
2023/09/02 09:37:08;;;;;;;3.10;1.70;;;23.00;99.90;;;23.08;90.19;97633.81;4998792;28;20107;-41
2023/09/02 09:39:46;;;;;;;3.53;1.85;;;23.10;99.90;;;23.11;91.69;97636.25;4989925;28;20038;-42
2023/09/02 09:42:14;;;;;;;3.15;1.90;;;23.10;99.90;;;23.18;96.42;97637.44;4980547;28;20030;-41
2023/09/02 09:44:57;;;;;;;2.58;1.65;;;23.10;99.90;;;23.22;92.89;97618.25;4994519;28;20045;-44
2023/09/02 09:47:25;;;;;;;2.05;1.30;;;23.20;99.90;;;23.25;92.66;97606.34;4989670;28;20034;-44
2023/09/02 09:49:52;;;;;;;1.80;1.42;;;23.20;99.90;;;23.32;94.36;97612.06;4985105;28;20113;-41
2023/09/02 09:52:20;;;;;;;2.95;1.50;;;23.30;99.90;;;23.41;91.89;97609.44;4971577;28;20104;-43
2023/09/02 09:54:52;;;;;;;2.28;1.38;;;23.40;99.90;;;23.52;85.56;97618.41;4992612;28;20530;-43
2023/09/02 09:57:30;;;;;;;5.97;3.27;;;23.50;99.90;;;23.57;85.04;97618.88;4997283;28;20721;-43
2023/09/02 09:59:56;;;;;;;1.60;1.40;;;23.50;99.90;;;23.62;85.64;97617.50;4989711;28;20660;-41
2023/09/02 10:02:23;;;;;;;2.67;1.60;;;23.60;99.90;;;23.65;87.81;97610.97;4990416;28;20045;-44
2023/09/02 10:04:59;;;;;;;3.78;1.98;;;23.60;99.90;;;23.68;90.41;97610.72;4992920;28;20670;-42
2023/09/02 10:07:27;;;;;;;4.03;1.40;;;23.60;99.90;;;23.73;92.43;97613.88;4977498;28;20797;-42
2023/09/02 10:09:59;;;;;;;1.95;1.50;;;23.70;99.90;;;23.74;90.39;97612.88;4974989;28;20799;-41
2023/09/02 10:12:24;;;;;;;2.58;1.38;;;23.70;99.90;;;23.73;80.29;97619.25;4982190;28;20025;-42